Богашево

Карта отелей и гостиниц, располагающихся рядом с аэропортом Богашево :

Богашево
Томск
Томская область 56° 22' 59.2788" N, 85° 12' 37.8612" E
Код аэродрома ИКАО
UNTT
Код аэродрома RU
УНТТ
Координаты
N56.38313° E085.21052°
Превышение над уровнем моря
182
Основная полоса
03L/21R
Курс магнитный
024,9/204,9
Длина основной ВПП
2500
Ширина основной ВПП
50
Покрытие основной ВПП
Твёрдое (асфальтобетон)
Освещение ВПП
Постоянное
Тип: 
Аэродром
Класс аэродрома: 
Международный
Принадлежность: 
ГА
Статус: 
Действующий
Сайт: 
http://airport.tomsk.ru/
Страна: 
Россия
Регион: 
Томская область
Город: 
Томск
Дополнительная информация: 
Военный индекс: XNTT / ЬНТТ.
Схемы аэропортов: 
Погода: 

Авиационная погода в Богашево

Регион: 
Погода METAR: 
UNTT 172100Z 14001MPS 5000 BR NSC 13/13 Q1004 R21/190055 NOSIG RMK QFE738
Время наблюдения
2021-06-17T21:00:00Z
Температура C
13.0
Точка росы
13.0
Направление ветра
140
Скорость ветра (узлы)
2
Метео видимость
3.11
Явления погоды
BR
Условия полета
MVFR
Аэропорт подробнее: 

Найти трансфер

С помощью этой формы Вы можете найти трансфер из аэропорта Богашево в город, аэропорт или вокзал:

Карта места

Javascript is required to view this map.

Погода в аэропортах:

Авиационная погода в Рощино

Регион: 
Погода METAR: 
USTR 172000Z 34005MPS 9999 -SHRA BKN046CB 15/14 Q1005 R30/290060 R21/290060 TEMPO VRB20MPS 2000 TSRA SQ
Время наблюдения
2021-06-17T20:00:00Z
Температура C
15.0
Точка росы
14.0
Направление ветра
340
Скорость ветра (узлы)
10
Метео видимость
6.21
Явления погоды
-SHRA
Условия полета
VFR
Аэропорт подробнее: 

Авиационная погода в Кишинёве

Регион: 
Погода METAR: 
LUKK 172100Z 03005KT 010V070 8000 -SHRA BKN012 BKN018CB 20/19 Q1015 RESHRA R08/290152 NOSIG
Время наблюдения
2021-06-17T21:00:00Z
Температура C
20.0
Точка росы
19.0
Направление ветра
30
Скорость ветра (узлы)
5
Метео видимость
4.97
Явления погоды
-SHRA
Условия полета
MVFR

Авиационная погода в аэропорту Алыкель

Регион: 
Погода METAR: 
UOOO 172100Z 17005MPS 8000 -SHRA SCT004 BKN019CB 11/11 Q0998 R19/CLRD60 NOSIG RMK QFE732/0977
Время наблюдения
2021-06-17T21:00:00Z
Температура C
11.0
Точка росы
11.0
Направление ветра
170
Скорость ветра (узлы)
10
Метео видимость
4.97
Явления погоды
-SHRA
Условия полета
MVFR
Аэропорт подробнее: 

Авиационная погода в Богашево

Регион: 
Погода METAR: 
UNTT 172100Z 14001MPS 5000 BR NSC 13/13 Q1004 R21/190055 NOSIG RMK QFE738
Время наблюдения
2021-06-17T21:00:00Z
Температура C
13.0
Точка росы
13.0
Направление ветра
140
Скорость ветра (узлы)
2
Метео видимость
3.11
Явления погоды
BR
Условия полета
MVFR
Аэропорт подробнее: